sensor_id;sensor_type;location;lat;lon;timestamp;P1;durP1;ratioP1;P2;durP2;ratioP2
17340;SDS011;8788;49.930;8.660;2023-02-08T04:01:58;11.52;;;5.55;;
17340;SDS011;8788;49.930;8.660;2023-02-08T04:04:28;8.75;;;5.00;;
17340;SDS011;8788;49.930;8.660;2023-02-08T04:06:58;7.22;;;5.18;;
17340;SDS011;8788;49.930;8.660;2023-02-08T04:09:25;9.23;;;5.93;;
17340;SDS011;8788;49.930;8.660;2023-02-08T04:11:52;7.78;;;5.22;;
17340;SDS011;8788;49.930;8.660;2023-02-08T04:14:19;8.65;;;5.93;;
17340;SDS011;8788;49.930;8.660;2023-02-08T04:16:46;12.13;;;5.65;;
17340;SDS011;8788;49.930;8.660;2023-02-08T04:19:15;11.55;;;5.57;;
17340;SDS011;8788;49.930;8.660;2023-02-08T04:21:42;9.65;;;5.43;;
17340;SDS011;8788;49.930;8.660;2023-02-08T04:24:09;8.93;;;5.40;;
17340;SDS011;8788;49.930;8.660;2023-02-08T04:26:36;11.02;;;5.88;;
17340;SDS011;8788;49.930;8.660;2023-02-08T04:29:03;8.13;;;5.20;;
17340;SDS011;8788;49.930;8.660;2023-02-08T04:31:30;12.75;;;5.85;;
17340;SDS011;8788;49.930;8.660;2023-02-08T04:33:57;12.02;;;6.28;;
17340;SDS011;8788;49.930;8.660;2023-02-08T04:36:26;15.20;;;6.93;;
17340;SDS011;8788;49.930;8.660;2023-02-08T04:38:53;9.43;;;6.05;;
17340;SDS011;8788;49.930;8.660;2023-02-08T04:41:20;7.93;;;5.78;;
17340;SDS011;8788;49.930;8.660;2023-02-08T04:43:47;12.02;;;6.18;;
17340;SDS011;8788;49.930;8.660;2023-02-08T04:46:14;9.73;;;5.85;;
17340;SDS011;8788;49.930;8.660;2023-02-08T04:48:41;8.80;;;5.80;;
17340;SDS011;8788;49.930;8.660;2023-02-08T04:51:08;7.53;;;5.45;;
17340;SDS011;8788;49.930;8.660;2023-02-08T04:53:37;13.35;;;5.57;;
17340;SDS011;8788;49.930;8.660;2023-02-08T04:56:04;11.00;;;6.47;;
17340;SDS011;8788;49.930;8.660;2023-02-08T04:58:31;8.85;;;5.30;;
17340;SDS011;8788;49.930;8.660;2023-02-08T05:00:58;9.75;;;5.93;;
17340;SDS011;8788;49.930;8.660;2023-02-08T05:03:25;10.77;;;6.68;;
17340;SDS011;8788;49.930;8.660;2023-02-08T05:05:56;9.57;;;5.97;;
17340;SDS011;8788;49.930;8.660;2023-02-08T05:08:23;11.35;;;6.18;;
17340;SDS011;8788;49.930;8.660;2023-02-08T05:10:52;7.05;;;5.40;;
17340;SDS011;8788;49.930;8.660;2023-02-08T05:13:19;10.55;;;5.82;;
17340;SDS011;8788;49.930;8.660;2023-02-08T05:15:46;10.70;;;5.65;;
17340;SDS011;8788;49.930;8.660;2023-02-08T05:18:13;14.23;;;6.05;;
17340;SDS011;8788;49.930;8.660;2023-02-08T05:20:40;9.00;;;5.90;;
17340;SDS011;8788;49.930;8.660;2023-02-08T05:23:07;10.48;;;5.85;;
17340;SDS011;8788;49.930;8.660;2023-02-08T05:25:36;7.82;;;5.60;;
17340;SDS011;8788;49.930;8.660;2023-02-08T05:28:06;8.80;;;5.93;;
17340;SDS011;8788;49.930;8.660;2023-02-08T05:30:33;9.50;;;6.57;;
17340;SDS011;8788;49.930;8.660;2023-02-08T05:33:00;11.25;;;6.70;;
17340;SDS011;8788;49.930;8.660;2023-02-08T05:35:27;12.70;;;7.60;;
17340;SDS011;8788;49.930;8.660;2023-02-08T05:37:54;11.55;;;7.13;;
17340;SDS011;8788;49.930;8.660;2023-02-08T05:40:21;16.80;;;7.88;;
17340;SDS011;8788;49.930;8.660;2023-02-08T05:42:48;10.20;;;7.07;;
17340;SDS011;8788;49.930;8.660;2023-02-08T05:45:16;9.73;;;6.47;;
17340;SDS011;8788;49.930;8.660;2023-02-08T05:47:43;13.68;;;7.18;;
17340;SDS011;8788;49.930;8.660;2023-02-08T05:50:11;15.02;;;7.28;;
17340;SDS011;8788;49.930;8.660;2023-02-08T05:52:38;10.18;;;6.82;;
17340;SDS011;8788;49.930;8.660;2023-02-08T05:55:06;12.88;;;8.05;;
17340;SDS011;8788;49.930;8.660;2023-02-08T05:57:33;9.82;;;6.55;;
17340;SDS011;8788;49.930;8.660;2023-02-08T06:00:01;11.52;;;5.93;;
17340;SDS011;8788;49.930;8.660;2023-02-08T06:02:31;11.15;;;5.93;;
17340;SDS011;8788;49.930;8.660;2023-02-08T06:04:58;8.93;;;5.60;;
17340;SDS011;8788;49.930;8.660;2023-02-08T06:07:25;10.52;;;6.82;;
17340;SDS011;8788;49.930;8.660;2023-02-08T06:09:53;11.05;;;6.15;;
17340;SDS011;8788;49.930;8.660;2023-02-08T06:12:20;8.85;;;6.28;;
17340;SDS011;8788;49.930;8.660;2023-02-08T06:14:48;11.27;;;6.50;;
17340;SDS011;8788;49.930;8.660;2023-02-08T06:17:15;8.27;;;5.85;;
17340;SDS011;8788;49.930;8.660;2023-02-08T06:19:43;10.85;;;6.45;;
17340;SDS011;8788;49.930;8.660;2023-02-08T06:22:10;11.45;;;6.53;;
17340;SDS011;8788;49.930;8.660;2023-02-08T06:24:37;10.52;;;6.20;;
17340;SDS011;8788;49.930;8.660;2023-02-08T06:27:05;11.15;;;6.68;;
17340;SDS011;8788;49.930;8.660;2023-02-08T06:29:32;10.30;;;6.13;;
17340;SDS011;8788;49.930;8.660;2023-02-08T06:31:59;17.92;;;8.00;;
17340;SDS011;8788;49.930;8.660;2023-02-08T06:34:26;10.18;;;5.47;;
17340;SDS011;8788;49.930;8.660;2023-02-08T06:36:55;8.43;;;5.88;;
17340;SDS011;8788;49.930;8.660;2023-02-08T06:39:24;5.90;;;5.10;;
17340;SDS011;8788;49.930;8.660;2023-02-08T06:41:51;8.13;;;5.60;;
17340;SDS011;8788;49.930;8.660;2023-02-08T06:44:18;12.10;;;6.50;;
17340;SDS011;8788;49.930;8.660;2023-02-08T06:46:45;9.38;;;5.68;;
17340;SDS011;8788;49.930;8.660;2023-02-08T06:49:12;11.63;;;6.88;;
17340;SDS011;8788;49.930;8.660;2023-02-08T06:51:39;9.45;;;5.65;;
17340;SDS011;8788;49.930;8.660;2023-02-08T06:54:08;11.25;;;6.47;;
17340;SDS011;8788;49.930;8.660;2023-02-08T06:56:35;9.93;;;5.78;;
17340;SDS011;8788;49.930;8.660;2023-02-08T06:59:02;10.15;;;6.55;;
17340;SDS011;8788;49.930;8.660;2023-02-08T07:01:29;12.85;;;5.70;;
17340;SDS011;8788;49.930;8.660;2023-02-08T07:03:56;9.38;;;6.07;;
17340;SDS011;8788;49.930;8.660;2023-02-08T07:06:23;11.15;;;5.88;;
17340;SDS011;8788;49.930;8.660;2023-02-08T07:08:50;10.05;;;6.00;;
17340;SDS011;8788;49.930;8.660;2023-02-08T07:11:19;11.05;;;6.15;;
17340;SDS011;8788;49.930;8.660;2023-02-08T07:13:47;9.45;;;6.30;;
17340;SDS011;8788;49.930;8.660;2023-02-08T07:16:14;12.50;;;5.95;;
17340;SDS011;8788;49.930;8.660;2023-02-08T07:18:42;10.45;;;5.75;;
17340;SDS011;8788;49.930;8.660;2023-02-08T07:21:09;15.05;;;6.55;;
17340;SDS011;8788;49.930;8.660;2023-02-08T07:23:36;12.40;;;6.57;;
17340;SDS011;8788;49.930;8.660;2023-02-08T07:26:05;10.07;;;5.85;;
17340;SDS011;8788;49.930;8.660;2023-02-08T07:28:34;12.85;;;6.38;;
17340;SDS011;8788;49.930;8.660;2023-02-08T07:31:03;10.55;;;5.60;;
17340;SDS011;8788;49.930;8.660;2023-02-08T07:33:31;13.18;;;6.68;;
17340;SDS011;8788;49.930;8.660;2023-02-08T07:35:58;6.82;;;4.78;;
17340;SDS011;8788;49.930;8.660;2023-02-08T07:38:25;9.90;;;5.85;;
17340;SDS011;8788;49.930;8.660;2023-02-08T07:40:58;10.30;;;5.88;;
17340;SDS011;8788;49.930;8.660;2023-02-08T07:43:26;8.45;;;5.28;;
17340;SDS011;8788;49.930;8.660;2023-02-08T07:46:03;6.85;;;5.13;;
17340;SDS011;8788;49.930;8.660;2023-02-08T07:48:31;8.80;;;4.80;;
17340;SDS011;8788;49.930;8.660;2023-02-08T07:50:58;10.20;;;5.53;;
17340;SDS011;8788;49.930;8.660;2023-02-08T07:53:25;9.38;;;5.82;;
17340;SDS011;8788;49.930;8.660;2023-02-08T07:55:52;9.77;;;6.00;;
17340;SDS011;8788;49.930;8.660;2023-02-08T07:58:19;7.63;;;4.85;;
17340;SDS011;8788;49.930;8.660;2023-02-08T08:00:46;8.48;;;5.55;;
17340;SDS011;8788;49.930;8.660;2023-02-08T08:03:15;11.13;;;4.88;;
17340;SDS011;8788;49.930;8.660;2023-02-08T08:05:42;11.80;;;5.90;;
17340;SDS011;8788;49.930;8.660;2023-02-08T08:08:10;8.00;;;5.93;;
17340;SDS011;8788;49.930;8.660;2023-02-08T08:10:38;10.10;;;5.30;;
17340;SDS011;8788;49.930;8.660;2023-02-08T08:13:05;7.55;;;6.07;;
17340;SDS011;8788;49.930;8.660;2023-02-08T08:15:32;8.23;;;5.15;;
17340;SDS011;8788;49.930;8.660;2023-02-08T08:17:59;9.95;;;5.95;;
17340;SDS011;8788;49.930;8.660;2023-02-08T08:20:27;12.07;;;6.07;;
17340;SDS011;8788;49.930;8.660;2023-02-08T08:22:55;13.60;;;7.03;;
17340;SDS011;8788;49.930;8.660;2023-02-08T08:25:22;12.35;;;6.70;;
17340;SDS011;8788;49.930;8.660;2023-02-08T08:27:49;8.48;;;5.82;;
17340;SDS011;8788;49.930;8.660;2023-02-08T08:30:16;9.75;;;6.32;;
17340;SDS011;8788;49.930;8.660;2023-02-08T08:32:43;11.77;;;6.05;;
17340;SDS011;8788;49.930;8.660;2023-02-08T08:35:10;12.18;;;6.65;;
17340;SDS011;8788;49.930;8.660;2023-02-08T08:37:39;12.82;;;6.60;;
17340;SDS011;8788;49.930;8.660;2023-02-08T08:40:06;12.13;;;6.82;;
17340;SDS011;8788;49.930;8.660;2023-02-08T08:42:34;11.00;;;5.97;;
17340;SDS011;8788;49.930;8.660;2023-02-08T08:45:04;11.35;;;6.68;;
17340;SDS011;8788;49.930;8.660;2023-02-08T08:47:31;11.82;;;5.70;;
17340;SDS011;8788;49.930;8.660;2023-02-08T08:49:59;12.50;;;6.80;;
17340;SDS011;8788;49.930;8.660;2023-02-08T08:52:26;11.23;;;6.20;;
17340;SDS011;8788;49.930;8.660;2023-02-08T08:54:55;10.25;;;5.97;;
17340;SDS011;8788;49.930;8.660;2023-02-08T08:57:22;10.73;;;6.47;;
17340;SDS011;8788;49.930;8.660;2023-02-08T08:59:49;9.52;;;6.35;;
17340;SDS011;8788;49.930;8.660;2023-02-08T09:02:16;10.20;;;6.20;;
17340;SDS011;8788;49.930;8.660;2023-02-08T09:04:43;10.10;;;6.40;;
17340;SDS011;8788;49.930;8.660;2023-02-08T09:07:10;14.07;;;6.35;;
17340;SDS011;8788;49.930;8.660;2023-02-08T09:09:37;10.57;;;6.32;;
17340;SDS011;8788;49.930;8.660;2023-02-08T09:12:06;11.73;;;6.35;;
17340;SDS011;8788;49.930;8.660;2023-02-08T09:14:33;13.68;;;7.45;;
17340;SDS011;8788;49.930;8.660;2023-02-08T09:17:00;13.80;;;7.25;;
17340;SDS011;8788;49.930;8.660;2023-02-08T09:19:27;11.02;;;6.65;;
17340;SDS011;8788;49.930;8.660;2023-02-08T09:21:54;12.25;;;7.15;;
17340;SDS011;8788;49.930;8.660;2023-02-08T09:24:22;12.82;;;7.03;;
17340;SDS011;8788;49.930;8.660;2023-02-08T09:26:49;10.35;;;6.45;;
17340;SDS011;8788;49.930;8.660;2023-02-08T09:29:18;10.77;;;6.65;;
17340;SDS011;8788;49.930;8.660;2023-02-08T09:31:45;11.73;;;6.93;;
17340;SDS011;8788;49.930;8.660;2023-02-08T09:34:12;13.38;;;6.47;;
17340;SDS011;8788;49.930;8.660;2023-02-08T09:36:39;13.55;;;7.05;;
17340;SDS011;8788;49.930;8.660;2023-02-08T09:39:07;9.77;;;6.15;;
17340;SDS011;8788;49.930;8.660;2023-02-08T09:41:40;12.50;;;6.70;;
17340;SDS011;8788;49.930;8.660;2023-02-08T09:44:26;13.70;;;7.57;;
17340;SDS011;8788;49.930;8.660;2023-02-08T09:47:02;13.55;;;7.40;;
17340;SDS011;8788;49.930;8.660;2023-02-08T09:49:42;10.52;;;6.60;;
17340;SDS011;8788;49.930;8.660;2023-02-08T09:52:17;11.02;;;6.60;;
17340;SDS011;8788;49.930;8.660;2023-02-08T09:54:49;8.27;;;6.38;;
17340;SDS011;8788;49.930;8.660;2023-02-08T09:57:20;9.80;;;6.57;;
17340;SDS011;8788;49.930;8.660;2023-02-08T09:59:53;11.07;;;7.35;;
17340;SDS011;8788;49.930;8.660;2023-02-08T10:02:25;11.20;;;7.25;;
17340;SDS011;8788;49.930;8.660;2023-02-08T10:04:55;11.88;;;7.05;;
17340;SDS011;8788;49.930;8.660;2023-02-08T10:07:25;10.90;;;6.60;;
17340;SDS011;8788;49.930;8.660;2023-02-08T10:09:53;9.13;;;6.72;;
17340;SDS011;8788;49.930;8.660;2023-02-08T10:12:27;12.63;;;7.57;;
17340;SDS011;8788;49.930;8.660;2023-02-08T10:15:11;13.95;;;7.45;;
17340;SDS011;8788;49.930;8.660;2023-02-08T10:17:50;11.77;;;7.18;;
17340;SDS011;8788;49.930;8.660;2023-02-08T10:20:30;14.65;;;6.80;;
17340;SDS011;8788;49.930;8.660;2023-02-08T10:23:15;9.63;;;6.00;;
17340;SDS011;8788;49.930;8.660;2023-02-08T10:26:00;11.07;;;7.82;;
17340;SDS011;8788;49.930;8.660;2023-02-08T10:28:39;12.18;;;7.93;;
17340;SDS011;8788;49.930;8.660;2023-02-08T10:31:27;12.65;;;7.47;;
17340;SDS011;8788;49.930;8.660;2023-02-08T10:34:07;9.40;;;6.53;;
17340;SDS011;8788;49.930;8.660;2023-02-08T10:36:40;8.82;;;6.38;;
17340;SDS011;8788;49.930;8.660;2023-02-08T10:39:12;12.00;;;6.40;;
17340;SDS011;8788;49.930;8.660;2023-02-08T10:41:42;12.63;;;7.22;;
17340;SDS011;8788;49.930;8.660;2023-02-08T10:44:14;10.40;;;6.55;;
17340;SDS011;8788;49.930;8.660;2023-02-08T10:46:51;11.38;;;6.50;;
17340;SDS011;8788;49.930;8.660;2023-02-08T10:49:27;10.07;;;6.72;;
17340;SDS011;8788;49.930;8.660;2023-02-08T10:51:59;10.40;;;6.22;;
17340;SDS011;8788;49.930;8.660;2023-02-08T10:54:26;8.13;;;5.28;;
17340;SDS011;8788;49.930;8.660;2023-02-08T10:56:54;10.43;;;6.75;;
17340;SDS011;8788;49.930;8.660;2023-02-08T10:59:26;7.65;;;5.68;;
17340;SDS011;8788;49.930;8.660;2023-02-08T11:01:57;10.90;;;6.25;;
17340;SDS011;8788;49.930;8.660;2023-02-08T11:04:25;11.98;;;6.72;;
17340;SDS011;8788;49.930;8.660;2023-02-08T11:06:52;8.95;;;5.82;;
17340;SDS011;8788;49.930;8.660;2023-02-08T11:09:20;10.63;;;6.72;;
17340;SDS011;8788;49.930;8.660;2023-02-08T11:11:49;12.98;;;6.45;;
17340;SDS011;8788;49.930;8.660;2023-02-08T11:14:18;10.82;;;6.57;;
17340;SDS011;8788;49.930;8.660;2023-02-08T11:16:49;8.15;;;5.93;;
17340;SDS011;8788;49.930;8.660;2023-02-08T11:19:21;12.70;;;7.40;;
17340;SDS011;8788;49.930;8.660;2023-02-08T11:21:55;10.23;;;6.65;;
17340;SDS011;8788;49.930;8.660;2023-02-08T11:24:26;13.30;;;5.80;;
17340;SDS011;8788;49.930;8.660;2023-02-08T11:26:57;9.73;;;6.35;;
17340;SDS011;8788;49.930;8.660;2023-02-08T11:29:26;14.20;;;6.63;;
17340;SDS011;8788;49.930;8.660;2023-02-08T11:31:56;11.88;;;6.43;;
17340;SDS011;8788;49.930;8.660;2023-02-08T11:34:27;11.07;;;7.50;;
17340;SDS011;8788;49.930;8.660;2023-02-08T11:36:57;9.90;;;5.60;;
17340;SDS011;8788;49.930;8.660;2023-02-08T11:39:28;10.68;;;6.45;;
17340;SDS011;8788;49.930;8.660;2023-02-08T11:42:00;11.38;;;6.53;;
17340;SDS011;8788;49.930;8.660;2023-02-08T11:44:30;11.02;;;6.65;;
17340;SDS011;8788;49.930;8.660;2023-02-08T11:47:00;10.65;;;6.68;;
17340;SDS011;8788;49.930;8.660;2023-02-08T11:49:31;8.93;;;6.35;;
17340;SDS011;8788;49.930;8.660;2023-02-08T11:52:03;11.25;;;7.15;;
17340;SDS011;8788;49.930;8.660;2023-02-08T11:54:36;10.40;;;7.25;;
17340;SDS011;8788;49.930;8.660;2023-02-08T11:57:13;11.05;;;6.40;;
17340;SDS011;8788;49.930;8.660;2023-02-08T11:59:43;10.50;;;6.68;;
17340;SDS011;8788;49.930;8.660;2023-02-08T12:02:27;12.43;;;7.45;;
17340;SDS011;8788;49.930;8.660;2023-02-08T12:04:57;12.43;;;8.50;;
17340;SDS011;8788;49.930;8.660;2023-02-08T12:07:28;10.13;;;7.03;;
17340;SDS011;8788;49.930;8.660;2023-02-08T12:10:10;12.35;;;6.38;;
17340;SDS011;8788;49.930;8.660;2023-02-08T12:13:07;11.57;;;7.25;;
17340;SDS011;8788;49.930;8.660;2023-02-08T12:15:45;11.18;;;6.97;;
17340;SDS011;8788;49.930;8.660;2023-02-08T12:18:25;11.20;;;7.32;;
17340;SDS011;8788;49.930;8.660;2023-02-08T12:21:16;8.68;;;6.60;;
17340;SDS011;8788;49.930;8.660;2023-02-08T12:23:47;9.95;;;6.28;;
17340;SDS011;8788;49.930;8.660;2023-02-08T12:26:19;8.00;;;5.57;;
17340;SDS011;8788;49.930;8.660;2023-02-08T12:29:05;11.38;;;6.13;;
17340;SDS011;8788;49.930;8.660;2023-02-08T12:31:44;8.35;;;6.38;;
17340;SDS011;8788;49.930;8.660;2023-02-08T12:34:26;18.92;;;7.55;;
17340;SDS011;8788;49.930;8.660;2023-02-08T12:37:11;9.35;;;6.18;;
17340;SDS011;8788;49.930;8.660;2023-02-08T12:40:11;12.02;;;6.10;;
17340;SDS011;8788;49.930;8.660;2023-02-08T12:43:07;11.18;;;7.00;;
17340;SDS011;8788;49.930;8.660;2023-02-08T12:45:46;8.70;;;5.68;;
17340;SDS011;8788;49.930;8.660;2023-02-08T12:48:39;9.35;;;5.72;;
17340;SDS011;8788;49.930;8.660;2023-02-08T12:51:19;9.18;;;5.65;;
17340;SDS011;8788;49.930;8.660;2023-02-08T12:53:55;8.57;;;6.30;;
17340;SDS011;8788;49.930;8.660;2023-02-08T12:56:26;11.85;;;7.13;;
17340;SDS011;8788;49.930;8.660;2023-02-08T12:58:59;9.48;;;5.28;;
17340;SDS011;8788;49.930;8.660;2023-02-08T13:01:28;8.43;;;5.60;;
17340;SDS011;8788;49.930;8.660;2023-02-08T13:04:01;12.68;;;5.90;;
17340;SDS011;8788;49.930;8.660;2023-02-08T13:06:35;8.18;;;5.57;;
17340;SDS011;8788;49.930;8.660;2023-02-08T13:09:09;8.73;;;6.03;;
17340;SDS011;8788;49.930;8.660;2023-02-08T13:11:41;8.60;;;5.32;;
17340;SDS011;8788;49.930;8.660;2023-02-08T13:14:14;8.05;;;5.22;;
17340;SDS011;8788;49.930;8.660;2023-02-08T13:16:52;7.38;;;4.97;;
17340;SDS011;8788;49.930;8.660;2023-02-08T13:19:25;7.82;;;4.57;;
17340;SDS011;8788;49.930;8.660;2023-02-08T13:21:57;6.47;;;4.60;;
17340;SDS011;8788;49.930;8.660;2023-02-08T13:24:27;6.88;;;4.40;;
17340;SDS011;8788;49.930;8.660;2023-02-08T13:26:59;8.70;;;4.68;;
17340;SDS011;8788;49.930;8.660;2023-02-08T13:29:26;7.78;;;5.15;;
17340;SDS011;8788;49.930;8.660;2023-02-08T13:31:55;6.60;;;4.63;;
17340;SDS011;8788;49.930;8.660;2023-02-08T13:34:27;7.03;;;4.45;;
17340;SDS011;8788;49.930;8.660;2023-02-08T13:36:58;9.57;;;4.60;;
17340;SDS011;8788;49.930;8.660;2023-02-08T13:39:32;7.88;;;4.80;;
17340;SDS011;8788;49.930;8.660;2023-02-08T13:42:01;7.45;;;5.22;;
17340;SDS011;8788;49.930;8.660;2023-02-08T13:44:30;9.80;;;4.40;;
17340;SDS011;8788;49.930;8.660;2023-02-08T13:47:00;10.20;;;5.25;;
17340;SDS011;8788;49.930;8.660;2023-02-08T13:49:40;10.50;;;6.18;;
17340;SDS011;8788;49.930;8.660;2023-02-08T13:52:10;7.40;;;5.45;;
17340;SDS011;8788;49.930;8.660;2023-02-08T13:54:39;9.30;;;4.80;;
17340;SDS011;8788;49.930;8.660;2023-02-08T14:00:20;6.70;;;4.97;;
17340;SDS011;8788;49.930;8.660;2023-02-08T14:02:56;6.40;;;4.10;;
17340;SDS011;8788;49.930;8.660;2023-02-08T14:05:39;6.82;;;4.45;;
17340;SDS011;8788;49.930;8.660;2023-02-08T14:08:16;10.30;;;4.47;;
17340;SDS011;8788;49.930;8.660;2023-02-08T14:10:50;6.82;;;4.78;;
17340;SDS011;8788;49.930;8.660;2023-02-08T14:13:29;5.70;;;4.35;;
17340;SDS011;8788;49.930;8.660;2023-02-08T14:18:52;8.07;;;4.18;;
17340;SDS011;8788;49.930;8.660;2023-02-08T14:21:25;15.98;;;6.60;;
17340;SDS011;8788;49.930;8.660;2023-02-08T14:24:00;9.85;;;5.00;;
17340;SDS011;8788;49.930;8.660;2023-02-08T14:26:31;8.68;;;5.07;;
17340;SDS011;8788;49.930;8.660;2023-02-08T14:28:59;13.85;;;5.15;;
17340;SDS011;8788;49.930;8.660;2023-02-08T14:31:34;8.98;;;5.93;;
17340;SDS011;8788;49.930;8.660;2023-02-08T14:34:05;5.85;;;3.90;;
17340;SDS011;8788;49.930;8.660;2023-02-08T14:36:57;7.70;;;4.10;;
17340;SDS011;8788;49.930;8.660;2023-02-08T14:39:26;8.68;;;4.65;;
17340;SDS011;8788;49.930;8.660;2023-02-08T14:41:59;7.25;;;5.07;;
17340;SDS011;8788;49.930;8.660;2023-02-08T14:50:29;7.60;;;5.07;;
17340;SDS011;8788;49.930;8.660;2023-02-08T14:53:17;6.38;;;4.75;;
17340;SDS011;8788;49.930;8.660;2023-02-08T14:55:51;9.25;;;5.15;;
17340;SDS011;8788;49.930;8.660;2023-02-08T14:58:26;10.25;;;5.57;;
17340;SDS011;8788;49.930;8.660;2023-02-08T15:00:55;6.38;;;5.07;;
17340;SDS011;8788;49.930;8.660;2023-02-08T15:03:26;7.45;;;5.22;;
17340;SDS011;8788;49.930;8.660;2023-02-08T15:08:49;5.53;;;4.80;;
17340;SDS011;8788;49.930;8.660;2023-02-08T15:11:21;6.43;;;4.70;;
17340;SDS011;8788;49.930;8.660;2023-02-08T15:13:53;5.43;;;4.63;;
17340;SDS011;8788;49.930;8.660;2023-02-08T15:16:22;6.80;;;4.75;;
17340;SDS011;8788;49.930;8.660;2023-02-08T15:18:54;6.75;;;5.13;;
17340;SDS011;8788;49.930;8.660;2023-02-08T15:21:22;6.57;;;4.78;;
17340;SDS011;8788;49.930;8.660;2023-02-08T15:23:58;6.78;;;4.93;;
17340;SDS011;8788;49.930;8.660;2023-02-08T15:26:27;10.00;;;5.03;;
17340;SDS011;8788;49.930;8.660;2023-02-08T15:28:55;7.22;;;4.60;;
17340;SDS011;8788;49.930;8.660;2023-02-08T15:31:25;5.50;;;4.45;;
17340;SDS011;8788;49.930;8.660;2023-02-08T15:33:56;8.20;;;4.68;;
17340;SDS011;8788;49.930;8.660;2023-02-08T15:36:27;9.30;;;5.35;;
17340;SDS011;8788;49.930;8.660;2023-02-08T15:38:57;8.38;;;5.68;;
17340;SDS011;8788;49.930;8.660;2023-02-08T15:41:28;8.20;;;5.28;;
17340;SDS011;8788;49.930;8.660;2023-02-08T15:44:11;7.38;;;5.10;;
17340;SDS011;8788;49.930;8.660;2023-02-08T15:46:43;10.57;;;5.78;;
17340;SDS011;8788;49.930;8.660;2023-02-08T15:49:12;10.45;;;6.07;;
17340;SDS011;8788;49.930;8.660;2023-02-08T15:51:42;6.30;;;4.50;;
17340;SDS011;8788;49.930;8.660;2023-02-08T15:54:12;7.55;;;5.38;;
17340;SDS011;8788;49.930;8.660;2023-02-08T15:56:45;8.82;;;5.63;;
17340;SDS011;8788;49.930;8.660;2023-02-08T15:59:18;10.07;;;6.13;;
17340;SDS011;8788;49.930;8.660;2023-02-08T16:01:49;8.05;;;5.60;;
17340;SDS011;8788;49.930;8.660;2023-02-08T16:04:17;11.43;;;6.38;;
17340;SDS011;8788;49.930;8.660;2023-02-08T16:06:46;9.75;;;6.07;;
17340;SDS011;8788;49.930;8.660;2023-02-08T16:09:15;8.60;;;5.22;;
17340;SDS011;8788;49.930;8.660;2023-02-08T16:11:45;8.77;;;4.90;;
17340;SDS011;8788;49.930;8.660;2023-02-08T16:14:15;9.60;;;5.95;;
17340;SDS011;8788;49.930;8.660;2023-02-08T16:16:46;11.30;;;5.38;;
17340;SDS011;8788;49.930;8.660;2023-02-08T16:19:23;9.13;;;5.30;;
17340;SDS011;8788;49.930;8.660;2023-02-08T16:21:52;9.63;;;6.30;;
17340;SDS011;8788;49.930;8.660;2023-02-08T16:24:22;13.30;;;7.40;;
17340;SDS011;8788;49.930;8.660;2023-02-08T16:26:53;9.40;;;5.75;;
17340;SDS011;8788;49.930;8.660;2023-02-08T16:29:25;8.23;;;5.07;;
17340;SDS011;8788;49.930;8.660;2023-02-08T16:31:58;9.50;;;5.05;;
17340;SDS011;8788;49.930;8.660;2023-02-08T16:34:28;8.13;;;4.28;;
17340;SDS011;8788;49.930;8.660;2023-02-08T16:36:57;15.13;;;5.10;;
17340;SDS011;8788;49.930;8.660;2023-02-08T16:42:21;9.23;;;5.93;;
17340;SDS011;8788;49.930;8.660;2023-02-08T16:44:58;10.68;;;5.07;;
17340;SDS011;8788;49.930;8.660;2023-02-08T16:47:38;11.30;;;7.03;;
17340;SDS011;8788;49.930;8.660;2023-02-08T16:50:07;12.20;;;6.00;;
17340;SDS011;8788;49.930;8.660;2023-02-08T16:52:36;8.23;;;5.20;;
17340;SDS011;8788;49.930;8.660;2023-02-08T16:55:04;6.22;;;4.68;;
17340;SDS011;8788;49.930;8.660;2023-02-08T16:57:39;8.82;;;4.55;;
17340;SDS011;8788;49.930;8.660;2023-02-08T17:00:17;7.18;;;4.00;;
17340;SDS011;8788;49.930;8.660;2023-02-08T17:12:29;10.80;;;5.30;;
17340;SDS011;8788;49.930;8.660;2023-02-08T17:14:57;8.00;;;5.15;;
17340;SDS011;8788;49.930;8.660;2023-02-08T17:17:25;9.45;;;5.18;;
17340;SDS011;8788;49.930;8.660;2023-02-08T17:19:52;11.25;;;5.47;;
17340;SDS011;8788;49.930;8.660;2023-02-08T17:22:19;13.23;;;6.93;;
17340;SDS011;8788;49.930;8.660;2023-02-08T17:24:46;8.48;;;5.25;;
17340;SDS011;8788;49.930;8.660;2023-02-08T17:27:14;9.15;;;5.13;;
17340;SDS011;8788;49.930;8.660;2023-02-08T17:29:41;8.23;;;4.80;;
17340;SDS011;8788;49.930;8.660;2023-02-08T17:32:08;10.07;;;5.05;;
17340;SDS011;8788;49.930;8.660;2023-02-08T17:34:36;8.25;;;4.75;;
17340;SDS011;8788;49.930;8.660;2023-02-08T17:37:05;10.07;;;5.38;;
17340;SDS011;8788;49.930;8.660;2023-02-08T17:39:32;8.48;;;4.78;;
17340;SDS011;8788;49.930;8.660;2023-02-08T17:42:00;13.77;;;5.70;;
17340;SDS011;8788;49.930;8.660;2023-02-08T17:44:27;11.73;;;5.80;;
17340;SDS011;8788;49.930;8.660;2023-02-08T17:46:54;9.70;;;6.18;;
17340;SDS011;8788;49.930;8.660;2023-02-08T17:49:21;9.30;;;6.18;;
17340;SDS011;8788;49.930;8.660;2023-02-08T17:51:49;8.77;;;5.80;;
17340;SDS011;8788;49.930;8.660;2023-02-08T17:54:16;8.73;;;5.57;;
17340;SDS011;8788;49.930;8.660;2023-02-08T17:56:45;10.15;;;5.53;;
17340;SDS011;8788;49.930;8.660;2023-02-08T17:59:12;7.88;;;5.00;;
17340;SDS011;8788;49.930;8.660;2023-02-08T18:01:39;9.38;;;5.65;;
17340;SDS011;8788;49.930;8.660;2023-02-08T18:04:08;7.95;;;4.50;;
17340;SDS011;8788;49.930;8.660;2023-02-08T18:06:36;7.47;;;4.43;;
17340;SDS011;8788;49.930;8.660;2023-02-08T18:09:04;8.35;;;5.05;;
17340;SDS011;8788;49.930;8.660;2023-02-08T18:11:31;6.75;;;4.43;;
17340;SDS011;8788;49.930;8.660;2023-02-08T18:13:58;9.68;;;5.32;;
17340;SDS011;8788;49.930;8.660;2023-02-08T18:16:27;7.28;;;5.07;;
17340;SDS011;8788;49.930;8.660;2023-02-08T18:18:55;13.32;;;4.53;;
17340;SDS011;8788;49.930;8.660;2023-02-08T18:21:25;10.27;;;4.75;;
17340;SDS011;8788;49.930;8.660;2023-02-08T18:23:58;9.48;;;5.28;;
17340;SDS011;8788;49.930;8.660;2023-02-08T18:26:27;7.32;;;4.88;;
17340;SDS011;8788;49.930;8.660;2023-02-08T18:28:57;9.15;;;4.60;;
17340;SDS011;8788;49.930;8.660;2023-02-08T18:31:24;6.65;;;4.70;;
17340;SDS011;8788;49.930;8.660;2023-02-08T18:33:52;6.47;;;3.88;;
17340;SDS011;8788;49.930;8.660;2023-02-08T18:36:20;8.90;;;4.32;;
17340;SDS011;8788;49.930;8.660;2023-02-08T18:38:49;14.65;;;5.30;;
17340;SDS011;8788;49.930;8.660;2023-02-08T18:41:20;13.20;;;7.18;;
17340;SDS011;8788;49.930;8.660;2023-02-08T18:43:50;14.02;;;7.75;;
17340;SDS011;8788;49.930;8.660;2023-02-08T18:46:20;16.35;;;7.88;;
17340;SDS011;8788;49.930;8.660;2023-02-08T18:48:49;22.38;;;8.77;;
17340;SDS011;8788;49.930;8.660;2023-02-08T18:51:18;24.35;;;9.77;;
17340;SDS011;8788;49.930;8.660;2023-02-08T18:53:47;15.13;;;8.73;;
17340;SDS011;8788;49.930;8.660;2023-02-08T18:56:16;18.75;;;8.35;;
17340;SDS011;8788;49.930;8.660;2023-02-08T18:58:45;14.57;;;8.52;;
17340;SDS011;8788;49.930;8.660;2023-02-08T19:01:15;14.35;;;8.15;;
17340;SDS011;8788;49.930;8.660;2023-02-08T19:03:43;13.32;;;7.97;;
17340;SDS011;8788;49.930;8.660;2023-02-08T19:06:11;12.88;;;8.13;;
17340;SDS011;8788;49.930;8.660;2023-02-08T19:08:41;19.80;;;9.27;;
17340;SDS011;8788;49.930;8.660;2023-02-08T19:11:13;13.07;;;9.10;;
17340;SDS011;8788;49.930;8.660;2023-02-08T19:13:41;11.60;;;8.10;;
17340;SDS011;8788;49.930;8.660;2023-02-08T19:16:09;17.92;;;7.85;;
17340;SDS011;8788;49.930;8.660;2023-02-08T19:18:38;12.25;;;6.88;;
17340;SDS011;8788;49.930;8.660;2023-02-08T19:21:06;10.48;;;5.85;;
17340;SDS011;8788;49.930;8.660;2023-02-08T19:23:35;12.73;;;6.45;;
17340;SDS011;8788;49.930;8.660;2023-02-08T19:26:03;10.73;;;6.45;;
17340;SDS011;8788;49.930;8.660;2023-02-08T19:28:31;11.88;;;6.78;;
17340;SDS011;8788;49.930;8.660;2023-02-08T19:31:03;9.00;;;5.85;;
17340;SDS011;8788;49.930;8.660;2023-02-08T19:33:33;11.32;;;6.85;;
17340;SDS011;8788;49.930;8.660;2023-02-08T19:36:06;11.50;;;7.07;;
17340;SDS011;8788;49.930;8.660;2023-02-08T19:38:33;10.93;;;7.15;;
17340;SDS011;8788;49.930;8.660;2023-02-08T19:41:01;10.93;;;7.10;;